createdAt,value
2023-02-25T00:00:35.059Z,3.07
2023-02-25T00:03:01.994Z,2.77
2023-02-25T00:05:31.793Z,3.00
2023-02-25T00:07:58.804Z,3.10
2023-02-25T00:10:25.853Z,2.80
2023-02-25T00:12:52.553Z,3.03
2023-02-25T00:15:19.232Z,3.00
2023-02-25T00:17:45.871Z,2.97
2023-02-25T00:20:16.809Z,2.10
2023-02-25T00:22:43.409Z,1.80
2023-02-25T00:25:10.122Z,1.50
2023-02-25T00:27:37.140Z,1.47
2023-02-25T00:30:05.387Z,1.33
2023-02-25T00:32:32.078Z,1.10
2023-02-25T00:34:58.924Z,1.43
2023-02-25T00:37:25.542Z,1.20
2023-02-25T00:39:52.124Z,1.27
2023-02-25T00:42:19.390Z,1.20
2023-02-25T00:44:50.740Z,1.00
2023-02-25T00:47:19.377Z,1.30
2023-02-25T00:49:47.656Z,1.20
2023-02-25T00:52:15.976Z,1.37
2023-02-25T00:54:42.661Z,1.10
2023-02-25T00:57:09.430Z,1.07
2023-02-25T00:59:36.017Z,1.20
2023-02-25T01:02:02.593Z,1.43
2023-02-25T01:04:29.209Z,1.60
2023-02-25T01:06:56.134Z,1.30
2023-02-25T01:09:23.089Z,1.67
2023-02-25T01:11:50.249Z,1.67
2023-02-25T01:14:20.556Z,1.60
2023-02-25T01:16:48.253Z,1.77
2023-02-25T01:19:21.682Z,1.67
2023-02-25T01:21:51.711Z,1.73
2023-02-25T01:24:24.855Z,1.67
2023-02-25T01:26:54.267Z,1.80
2023-02-25T01:29:24.340Z,2.03
2023-02-25T01:31:59.641Z,1.90
2023-02-25T01:34:26.831Z,1.80
2023-02-25T01:36:53.448Z,2.53
2023-02-25T01:39:21.146Z,2.10
2023-02-25T01:41:50.991Z,1.87
2023-02-25T01:44:25.007Z,1.90
2023-02-25T01:46:53.628Z,2.10
2023-02-25T01:49:33.565Z,2.33
2023-02-25T01:52:16.210Z,2.50
2023-02-25T01:54:45.828Z,2.30
2023-02-25T01:57:15.007Z,2.43
2023-02-25T01:59:43.169Z,2.67
2023-02-25T02:02:12.488Z,2.57
2023-02-25T02:04:41.184Z,2.50
2023-02-25T02:07:08.111Z,2.70
2023-02-25T02:09:34.836Z,2.47
2023-02-25T02:12:04.232Z,2.60
2023-02-25T02:14:34.626Z,2.70
2023-02-25T02:17:22.769Z,2.33
2023-02-25T02:19:52.091Z,2.20
2023-02-25T02:22:36.559Z,3.00
2023-02-25T02:25:14.849Z,2.00
2023-02-25T02:27:58.105Z,1.90
2023-02-25T02:30:40.620Z,2.27
2023-02-25T02:33:36.623Z,1.63
2023-02-25T02:36:16.783Z,2.10
2023-02-25T02:38:56.758Z,2.10
2023-02-25T02:41:35.397Z,1.70
2023-02-25T02:44:33.048Z,1.60
2023-02-25T02:47:09.258Z,1.70
2023-02-25T02:50:02.301Z,1.70
2023-02-25T02:52:35.529Z,1.80
2023-02-25T02:55:23.501Z,1.80
2023-02-25T02:58:02.557Z,1.70
2023-02-25T03:00:35.118Z,1.97
2023-02-25T03:03:36.075Z,1.80
2023-02-25T03:06:07.104Z,1.60
2023-02-25T03:08:39.795Z,1.50
2023-02-25T03:11:06.419Z,1.43
2023-02-25T03:13:33.090Z,1.90
2023-02-25T03:16:00.989Z,1.60
2023-02-25T03:18:38.840Z,1.80
2023-02-25T03:21:13.308Z,1.60
2023-02-25T03:23:41.854Z,1.70
2023-02-25T03:26:18.630Z,1.30
2023-02-25T03:28:46.176Z,1.40
2023-02-25T03:31:37.846Z,1.50
2023-02-25T03:34:13.698Z,1.50
2023-02-25T03:36:45.301Z,1.27
2023-02-25T03:39:17.079Z,1.33
2023-02-25T03:41:48.799Z,1.40
2023-02-25T03:44:20.829Z,1.40
2023-02-25T03:46:48.277Z,1.40
2023-02-25T03:49:28.396Z,1.53
2023-02-25T03:51:57.207Z,1.40
2023-02-25T03:54:23.791Z,1.50
2023-02-25T03:56:51.673Z,1.40
2023-02-25T03:59:19.244Z,1.10
2023-02-25T04:01:48.735Z,1.10
2023-02-25T04:04:15.372Z,1.10
2023-02-25T04:06:42.340Z,1.00
2023-02-25T04:09:08.922Z,1.20
2023-02-25T04:11:36.069Z,0.87
2023-02-25T04:14:02.698Z,1.10
2023-02-25T04:16:29.258Z,0.83
2023-02-25T04:18:55.842Z,1.10
2023-02-25T04:21:32.153Z,0.97
2023-02-25T04:23:59.570Z,0.80
2023-02-25T04:26:26.210Z,0.90
2023-02-25T04:28:53.023Z,0.77
2023-02-25T04:31:20.299Z,0.93
2023-02-25T04:33:49.936Z,0.90
2023-02-25T04:36:33.900Z,1.03
2023-02-25T04:39:03.365Z,0.80
2023-02-25T04:41:32.872Z,0.90
2023-02-25T04:44:00.523Z,0.80
2023-02-25T04:46:27.421Z,0.70
2023-02-25T04:48:54.038Z,0.90
2023-02-25T04:51:21.212Z,0.80
2023-02-25T04:53:48.633Z,0.77
2023-02-25T04:56:15.267Z,0.70
2023-02-25T04:58:41.937Z,0.80
2023-02-25T05:01:10.522Z,0.80
2023-02-25T05:03:37.708Z,0.70
2023-02-25T05:06:05.379Z,0.80
2023-02-25T05:08:33.022Z,0.90
2023-02-25T05:10:59.880Z,0.90
2023-02-25T05:13:27.880Z,0.80
2023-02-25T05:16:07.628Z,1.10
2023-02-25T05:18:39.181Z,1.00
2023-02-25T05:21:12.744Z,0.97
2023-02-25T05:23:40.294Z,0.83
2023-02-25T05:26:07.067Z,0.93
2023-02-25T05:28:33.702Z,1.13
2023-02-25T05:31:00.400Z,0.90
2023-02-25T05:33:27.278Z,1.00
2023-02-25T05:35:53.864Z,0.93
2023-02-25T05:38:20.422Z,0.90
2023-02-25T05:40:47.106Z,1.10
2023-02-25T05:43:13.745Z,0.90
2023-02-25T05:45:40.449Z,0.87
2023-02-25T05:48:07.293Z,1.13
2023-02-25T05:50:41.175Z,1.00
2023-02-25T05:53:09.392Z,1.10
2023-02-25T05:55:40.362Z,1.10
2023-02-25T05:58:06.940Z,1.20
2023-02-25T06:00:34.039Z,0.90
2023-02-25T06:03:00.729Z,1.23
2023-02-25T06:05:30.338Z,1.20
2023-02-25T06:07:57.682Z,1.10
2023-02-25T06:10:25.612Z,1.10
2023-02-25T06:12:52.730Z,1.10
2023-02-25T06:15:19.549Z,1.30
2023-02-25T06:17:46.115Z,1.30
2023-02-25T06:20:15.481Z,1.10
2023-02-25T06:22:42.449Z,1.13
2023-02-25T06:25:09.287Z,1.03
2023-02-25T06:27:35.923Z,1.40
2023-02-25T06:30:03.292Z,1.20
2023-02-25T06:32:29.983Z,1.20
2023-02-25T06:34:56.801Z,1.30
2023-02-25T06:37:23.350Z,1.10
2023-02-25T06:39:50.021Z,1.20
2023-02-25T06:42:16.720Z,1.40
2023-02-25T06:44:43.317Z,1.10
2023-02-25T06:47:09.948Z,1.20
2023-02-25T06:49:36.528Z,1.00
2023-02-25T06:52:03.532Z,0.90
2023-02-25T06:54:30.221Z,0.97
2023-02-25T06:56:56.895Z,1.00
2023-02-25T06:59:23.484Z,1.30
2023-02-25T07:01:50.094Z,0.90
2023-02-25T07:04:18.627Z,1.00
2023-02-25T07:06:48.009Z,1.00
2023-02-25T07:09:14.704Z,1.20
2023-02-25T07:11:41.319Z,1.23
2023-02-25T07:14:07.922Z,0.90
2023-02-25T07:16:34.640Z,1.00
2023-02-25T07:19:05.027Z,1.10
2023-02-25T07:21:31.790Z,1.20
2023-02-25T07:23:58.654Z,1.10
2023-02-25T07:26:28.554Z,1.27
2023-02-25T07:28:59.620Z,1.00
2023-02-25T07:31:28.394Z,0.90
2023-02-25T07:33:55.878Z,0.90
2023-02-25T07:36:22.855Z,0.90
2023-02-25T07:38:49.523Z,1.03
2023-02-25T07:41:18.875Z,1.00
2023-02-25T07:43:45.700Z,1.30
2023-02-25T07:46:13.347Z,1.23
2023-02-25T07:48:40.538Z,1.00
2023-02-25T07:51:12.518Z,0.90
2023-02-25T07:53:39.612Z,0.93
2023-02-25T07:56:07.448Z,0.73
2023-02-25T07:58:35.518Z,1.10
2023-02-25T08:01:08.453Z,1.00
2023-02-25T08:03:35.126Z,0.83
2023-02-25T08:06:02.804Z,1.03
2023-02-25T08:08:29.412Z,0.70
2023-02-25T08:10:55.980Z,0.80
2023-02-25T08:13:22.747Z,0.70
2023-02-25T08:15:49.771Z,0.73
2023-02-25T08:18:16.457Z,0.70
2023-02-25T08:20:47.525Z,0.70
2023-02-25T08:23:14.239Z,0.70
2023-02-25T08:25:41.122Z,0.90
2023-02-25T08:28:07.895Z,1.00
2023-02-25T08:30:35.000Z,0.80
2023-02-25T08:33:01.705Z,0.80
2023-02-25T08:35:28.326Z,0.80
2023-02-25T08:37:55.030Z,0.70
2023-02-25T08:40:23.257Z,0.80
2023-02-25T08:42:49.883Z,0.70
2023-02-25T08:45:16.498Z,0.50
2023-02-25T08:47:43.106Z,0.70
2023-02-25T08:50:12.688Z,0.80
2023-02-25T08:52:42.097Z,0.60
2023-02-25T08:55:09.494Z,0.60
2023-02-25T08:57:39.076Z,0.70
2023-02-25T09:00:07.147Z,1.00
2023-02-25T09:02:33.808Z,0.60
2023-02-25T09:05:00.570Z,0.57
2023-02-25T09:07:27.430Z,0.57
2023-02-25T09:09:54.029Z,0.70
2023-02-25T09:12:23.005Z,0.70
2023-02-25T09:14:51.301Z,0.60
2023-02-25T09:17:18.003Z,0.70
2023-02-25T09:19:44.902Z,0.70
2023-02-25T09:22:11.725Z,0.60
2023-02-25T09:24:38.511Z,0.83
2023-02-25T09:27:09.312Z,0.60
2023-02-25T09:29:38.273Z,0.40
2023-02-25T09:32:06.793Z,0.53
2023-02-25T09:34:33.947Z,0.70
2023-02-25T09:37:04.021Z,0.70
2023-02-25T09:39:31.272Z,0.67
2023-02-25T09:42:07.794Z,0.73
2023-02-25T09:44:39.201Z,0.60
2023-02-25T09:47:23.185Z,0.60
2023-02-25T09:49:57.271Z,0.60
2023-02-25T09:52:36.847Z,0.70
2023-02-25T09:55:08.214Z,0.63
2023-02-25T09:57:41.361Z,0.90
2023-02-25T10:00:21.080Z,0.70
2023-02-25T10:02:54.905Z,1.00
2023-02-25T10:05:44.261Z,0.80
2023-02-25T10:08:46.708Z,0.80
2023-02-25T10:11:42.760Z,1.30
2023-02-25T10:14:35.751Z,1.30
2023-02-25T10:17:21.745Z,1.00
2023-02-25T10:20:38.857Z,1.30
2023-02-25T10:23:39.932Z,1.57
2023-02-25T10:26:20.873Z,1.00
2023-02-25T10:28:52.290Z,0.60
2023-02-25T10:31:21.148Z,0.67
2023-02-25T10:33:50.889Z,0.60
2023-02-25T10:36:18.744Z,0.60
2023-02-25T10:38:52.316Z,0.60
2023-02-25T10:41:22.612Z,0.50
2023-02-25T10:43:51.332Z,0.60
2023-02-25T10:46:28.497Z,0.60
2023-02-25T10:49:16.287Z,0.70
2023-02-25T10:52:12.739Z,0.60
2023-02-25T10:54:51.115Z,0.40
2023-02-25T10:57:35.095Z,0.63
2023-02-25T11:00:13.287Z,0.60
2023-02-25T11:02:43.365Z,0.30
2023-02-25T11:05:40.204Z,0.50
2023-02-25T11:08:26.760Z,0.50
2023-02-25T11:11:18.495Z,0.60
2023-02-25T11:13:53.057Z,0.70
2023-02-25T11:16:19.806Z,0.50
2023-02-25T11:18:52.407Z,0.40
2023-02-25T11:21:36.265Z,0.53
2023-02-25T11:24:13.703Z,0.60
2023-02-25T11:26:45.445Z,0.40
2023-02-25T11:29:21.523Z,0.53
2023-02-25T11:31:52.512Z,0.60
2023-02-25T11:34:25.648Z,0.50
2023-02-25T11:36:53.184Z,0.60
2023-02-25T11:39:25.690Z,0.47
2023-02-25T11:41:57.939Z,0.90
2023-02-25T11:44:49.262Z,0.60
2023-02-25T11:47:28.713Z,0.70
2023-02-25T11:50:25.942Z,0.70
2023-02-25T11:53:04.411Z,0.60
2023-02-25T11:55:52.626Z,0.40
2023-02-25T11:58:47.065Z,0.50
2023-02-25T12:01:24.825Z,0.50
2023-02-25T12:04:11.002Z,0.30
2023-02-25T12:07:16.738Z,0.63
2023-02-25T12:10:04.559Z,0.50
2023-02-25T12:12:55.154Z,0.70
2023-02-25T12:15:49.050Z,0.60
2023-02-25T12:18:53.460Z,0.63
2023-02-25T12:21:44.482Z,0.70
2023-02-25T12:24:41.431Z,0.80
2023-02-25T12:27:50.695Z,0.70
2023-02-25T12:30:51.610Z,0.90
2023-02-25T12:33:41.771Z,0.70
2023-02-25T12:36:23.226Z,0.40
2023-02-25T12:39:18.925Z,0.50
2023-02-25T12:41:55.651Z,1.30
2023-02-25T12:44:59.036Z,0.70
2023-02-25T12:48:05.712Z,0.70
2023-02-25T12:50:56.314Z,0.70
2023-02-25T12:53:59.730Z,0.60
2023-02-25T12:56:47.288Z,0.70
2023-02-25T12:59:17.014Z,0.70
2023-02-25T13:02:02.145Z,0.50
2023-02-25T13:04:53.081Z,0.80
2023-02-25T13:07:45.563Z,0.40
2023-02-25T13:10:40.298Z,0.53
2023-02-25T13:13:41.405Z,0.87
2023-02-25T13:16:46.108Z,1.00
2023-02-25T13:19:36.100Z,0.67
2023-02-25T13:22:09.925Z,0.67
2023-02-25T13:24:49.568Z,0.90
2023-02-25T13:27:49.339Z,0.90
2023-02-25T13:30:41.618Z,0.90
2023-02-25T13:33:17.573Z,0.80
2023-02-25T13:36:23.632Z,0.87
2023-02-25T13:38:59.297Z,1.00
2023-02-25T13:42:10.049Z,0.70
2023-02-25T13:45:13.847Z,0.93
2023-02-25T13:47:59.693Z,0.70
2023-02-25T13:50:54.993Z,0.70
2023-02-25T13:53:52.885Z,0.70
2023-02-25T13:56:43.823Z,0.80
2023-02-25T13:59:34.786Z,0.90
2023-02-25T14:02:34.746Z,0.93
2023-02-25T14:05:41.139Z,0.90
2023-02-25T14:08:13.979Z,0.80
2023-02-25T14:11:20.253Z,0.80
2023-02-25T14:14:24.656Z,1.30
2023-02-25T14:17:17.275Z,0.90
2023-02-25T14:20:11.466Z,0.90
2023-02-25T14:22:50.915Z,0.73
2023-02-25T14:25:37.935Z,1.07
2023-02-25T14:28:25.813Z,0.63
2023-02-25T14:31:17.766Z,0.90
2023-02-25T14:34:03.415Z,0.63
2023-02-25T14:36:57.006Z,0.90
2023-02-25T14:39:34.941Z,1.00
2023-02-25T14:42:23.741Z,1.10
2023-02-25T14:45:05.255Z,1.10
2023-02-25T14:47:40.002Z,0.90
2023-02-25T14:50:15.755Z,0.83
2023-02-25T14:53:20.204Z,0.83
2023-02-25T14:56:21.491Z,1.10
2023-02-25T14:59:26.116Z,0.90
2023-02-25T15:02:08.721Z,0.70
2023-02-25T15:04:52.262Z,0.93
2023-02-25T15:07:32.273Z,0.80
2023-02-25T15:10:11.785Z,0.80
2023-02-25T15:13:08.858Z,0.80
2023-02-25T15:16:09.705Z,0.77
2023-02-25T15:19:07.869Z,0.70
2023-02-25T15:21:44.951Z,0.90
2023-02-25T15:24:41.456Z,0.77
2023-02-25T15:27:40.725Z,0.80
2023-02-25T15:30:12.112Z,0.67
2023-02-25T15:32:57.671Z,0.50
2023-02-25T15:35:50.010Z,0.67
2023-02-25T15:38:37.843Z,0.70
2023-02-25T15:41:27.135Z,0.80
2023-02-25T15:43:57.516Z,0.90
2023-02-25T15:46:36.739Z,0.60
2023-02-25T15:49:26.667Z,0.77
2023-02-25T15:51:56.306Z,1.10
2023-02-25T15:54:29.362Z,0.77
2023-02-25T15:57:09.667Z,0.80
2023-02-25T15:59:55.485Z,0.50
2023-02-25T16:02:33.130Z,0.80
2023-02-25T16:05:04.881Z,0.80
2023-02-25T16:07:44.183Z,0.80
2023-02-25T16:10:41.180Z,0.90
2023-02-25T16:13:15.576Z,0.90
2023-02-25T16:15:52.112Z,0.90
2023-02-25T16:18:42.593Z,1.00
2023-02-25T16:21:22.232Z,1.00
2023-02-25T16:23:49.166Z,0.80
2023-02-25T16:26:31.145Z,0.90
2023-02-25T16:29:22.799Z,1.20
2023-02-25T16:32:02.847Z,0.90
2023-02-25T16:34:39.468Z,0.77
2023-02-25T16:37:34.666Z,0.80
2023-02-25T16:40:01.836Z,0.80
2023-02-25T16:42:32.977Z,1.10
2023-02-25T16:45:02.013Z,0.90
2023-02-25T16:47:38.886Z,0.80
2023-02-25T16:50:15.897Z,0.87
2023-02-25T16:52:48.047Z,1.00
2023-02-25T16:55:29.586Z,0.90
2023-02-25T16:58:03.254Z,1.77
2023-02-25T17:00:30.424Z,0.80
2023-02-25T17:03:00.985Z,0.90
2023-02-25T17:05:34.323Z,0.77
2023-02-25T17:08:13.986Z,0.80
2023-02-25T17:10:50.556Z,0.57
2023-02-25T17:13:25.374Z,0.80
2023-02-25T17:15:52.975Z,0.80
2023-02-25T17:18:25.290Z,1.00
2023-02-25T17:20:59.997Z,0.80
2023-02-25T17:23:26.721Z,1.00
2023-02-25T17:25:53.439Z,1.10
2023-02-25T17:28:26.347Z,1.00
2023-02-25T17:31:03.053Z,1.30
2023-02-25T17:33:29.836Z,1.60
2023-02-25T17:36:07.453Z,1.00
2023-02-25T17:38:37.013Z,1.00
2023-02-25T17:41:05.079Z,0.87
2023-02-25T17:43:38.890Z,0.90
2023-02-25T17:46:23.374Z,0.97
2023-02-25T17:49:02.489Z,0.73
2023-02-25T17:51:41.282Z,0.87
2023-02-25T17:54:15.630Z,0.97
2023-02-25T17:56:45.615Z,1.10
2023-02-25T17:59:12.313Z,1.20
2023-02-25T18:01:53.896Z,1.43
2023-02-25T18:04:35.269Z,0.90
2023-02-25T18:07:29.778Z,1.50
2023-02-25T18:09:57.268Z,1.10
2023-02-25T18:12:37.007Z,0.80
2023-02-25T18:15:17.223Z,0.80
2023-02-25T18:17:49.480Z,1.20
2023-02-25T18:20:43.568Z,1.23
2023-02-25T18:23:27.566Z,1.50
2023-02-25T18:26:17.571Z,1.30
2023-02-25T18:28:46.058Z,1.40
2023-02-25T18:31:19.368Z,1.40
2023-02-25T18:33:46.905Z,1.50
2023-02-25T18:36:26.066Z,1.40
2023-02-25T18:38:56.270Z,1.50
2023-02-25T18:41:23.066Z,1.27
2023-02-25T18:43:49.783Z,1.50
2023-02-25T18:46:16.550Z,1.90
2023-02-25T18:48:43.177Z,1.50
2023-02-25T18:51:13.417Z,1.30
2023-02-25T18:53:41.025Z,1.70
2023-02-25T18:56:08.699Z,1.60
2023-02-25T18:58:35.265Z,1.60
2023-02-25T19:01:02.258Z,1.50
2023-02-25T19:03:33.679Z,1.70
2023-02-25T19:06:01.121Z,1.20
2023-02-25T19:08:27.824Z,1.37
2023-02-25T19:10:54.736Z,1.80
2023-02-25T19:13:36.620Z,1.70
2023-02-25T19:16:03.385Z,1.43
2023-02-25T19:18:29.990Z,1.13
2023-02-25T19:20:56.933Z,1.20
2023-02-25T19:23:24.524Z,1.40
2023-02-25T19:25:56.864Z,1.20
2023-02-25T19:28:23.506Z,1.07
2023-02-25T19:30:50.594Z,1.37
2023-02-25T19:33:17.307Z,1.33
2023-02-25T19:35:44.387Z,1.63
2023-02-25T19:38:15.131Z,1.33
2023-02-25T19:40:43.991Z,1.30
2023-02-25T19:43:11.184Z,1.20
2023-02-25T19:45:38.925Z,1.40
2023-02-25T19:48:05.835Z,1.13
2023-02-25T19:50:34.828Z,1.27
2023-02-25T19:53:03.183Z,1.30
2023-02-25T19:55:30.207Z,1.20
2023-02-25T19:57:57.095Z,1.30
2023-02-25T20:00:25.544Z,1.40
2023-02-25T20:02:53.695Z,1.30
2023-02-25T20:05:21.672Z,2.70
2023-02-25T20:07:48.436Z,1.27
2023-02-25T20:10:15.834Z,1.30
2023-02-25T20:12:43.836Z,1.20
2023-02-25T20:15:12.026Z,1.10
2023-02-25T20:17:40.329Z,1.30
2023-02-25T20:20:08.494Z,1.40
2023-02-25T20:22:35.844Z,1.20
2023-02-25T20:25:03.041Z,1.17
2023-02-25T20:27:29.899Z,1.27
2023-02-25T20:29:56.506Z,1.10
2023-02-25T20:32:23.210Z,1.17
2023-02-25T20:34:49.968Z,0.77
2023-02-25T20:37:20.943Z,1.20
2023-02-25T20:39:49.614Z,1.60
2023-02-25T20:42:22.047Z,1.40
2023-02-25T20:44:51.808Z,1.20
2023-02-25T20:47:24.729Z,1.30
2023-02-25T20:49:53.078Z,1.20
2023-02-25T20:52:20.008Z,0.80
2023-02-25T20:54:48.692Z,1.27
2023-02-25T20:57:18.006Z,1.00
2023-02-25T20:59:45.337Z,1.20
2023-02-25T21:02:12.449Z,1.10
2023-02-25T21:04:41.183Z,1.13
2023-02-25T21:07:08.969Z,1.00
2023-02-25T21:09:36.102Z,1.37
2023-02-25T21:12:03.368Z,1.20
2023-02-25T21:14:30.072Z,1.30
2023-02-25T21:16:56.806Z,1.17
2023-02-25T21:19:25.242Z,1.10
2023-02-25T21:21:52.315Z,1.10
2023-02-25T21:24:19.548Z,0.97
2023-02-25T21:26:46.485Z,1.23
2023-02-25T21:29:14.791Z,1.07
2023-02-25T21:31:42.543Z,1.20
2023-02-25T21:34:11.729Z,1.20
2023-02-25T21:36:39.171Z,0.97
2023-02-25T21:39:06.913Z,1.30
2023-02-25T21:41:33.700Z,1.00
2023-02-25T21:44:00.685Z,1.40
2023-02-25T21:46:27.889Z,1.30
2023-02-25T21:48:56.059Z,0.90
2023-02-25T21:51:25.273Z,1.10
2023-02-25T21:53:56.513Z,1.40
2023-02-25T21:56:23.959Z,1.00
2023-02-25T21:59:00.665Z,1.30
2023-02-25T22:01:31.014Z,1.30
2023-02-25T22:03:57.811Z,1.10
2023-02-25T22:06:26.169Z,1.07
2023-02-25T22:08:54.153Z,1.53
2023-02-25T22:11:29.601Z,1.60
2023-02-25T22:13:57.845Z,1.60
2023-02-25T22:16:25.226Z,1.33
2023-02-25T22:18:52.310Z,1.20
2023-02-25T22:21:27.515Z,0.97
2023-02-25T22:23:56.627Z,1.20
2023-02-25T22:26:26.286Z,1.17
2023-02-25T22:28:58.282Z,0.90
2023-02-25T22:31:25.897Z,0.90
2023-02-25T22:33:52.820Z,1.20
2023-02-25T22:36:20.097Z,1.00
2023-02-25T22:38:48.064Z,1.00
2023-02-25T22:41:25.308Z,1.10
2023-02-25T22:43:52.326Z,1.27
2023-02-25T22:46:21.497Z,0.90
2023-02-25T22:48:49.392Z,1.10
2023-02-25T22:51:37.242Z,1.20
2023-02-25T22:54:04.738Z,1.20
2023-02-25T22:56:31.286Z,1.20
2023-02-25T22:58:58.088Z,1.20
2023-02-25T23:01:25.618Z,1.57
2023-02-25T23:03:53.583Z,1.33
2023-02-25T23:06:34.185Z,1.30
2023-02-25T23:09:08.361Z,1.30
2023-02-25T23:11:35.252Z,1.03
2023-02-25T23:14:03.275Z,1.37
2023-02-25T23:16:34.092Z,1.10
2023-02-25T23:19:07.698Z,1.17
2023-02-25T23:21:34.878Z,1.20
2023-02-25T23:24:04.783Z,1.50
2023-02-25T23:26:36.178Z,1.60
2023-02-25T23:29:05.732Z,1.60
2023-02-25T23:31:41.376Z,1.50
2023-02-25T23:34:11.857Z,1.10
2023-02-25T23:36:39.998Z,1.10
2023-02-25T23:39:07.973Z,0.97
2023-02-25T23:41:35.655Z,1.00
2023-02-25T23:44:03.817Z,1.00
2023-02-25T23:46:31.395Z,1.30
2023-02-25T23:49:00.738Z,1.10
2023-02-25T23:51:28.469Z,1.30
2023-02-25T23:53:58.190Z,1.10
2023-02-25T23:56:27.223Z,1.40
2023-02-25T23:58:54.573Z,1.00
